Time;durP1;ratioP1;P1;durP2;ratioP2;P2;SDS_P1;SDS_P2;PMS_P1;PMS_P2;Temp;Humidity;BMP_temperature;BMP_pressure;BME280_temperature;BME280_humidity;BME280_pressure;Samples;Min_cycle;Max_cycle;Signal;HPM_P1;HPM_P2
2021/11/24 00:01:03;;;;;;;28.08;17.30;;;;;;;6.26;84.59;102105.78;5065061;28;20400;-62
2021/11/24 00:03:31;;;;;;;26.63;17.25;;;;;;;6.01;85.43;102108.97;5059619;28;20060;-60
2021/11/24 00:05:58;;;;;;;29.02;18.00;;;;;;;6.27;85.21;102105.53;5062622;28;20037;-62
2021/11/24 00:08:25;;;;;;;29.40;17.50;;;;;;;6.27;84.61;102102.81;5065988;28;20063;-61
2021/11/24 00:10:53;;;;;;;26.42;17.52;;;;;;;6.35;84.33;102094.16;5070270;28;20053;-61
2021/11/24 00:13:21;;;;;;;25.40;17.63;;;;;;;6.33;84.20;102103.72;5054539;28;20060;-61
2021/11/24 00:15:48;;;;;;;25.77;17.23;;;;;;;6.45;83.58;102091.53;5066420;28;20045;-62
2021/11/24 00:18:16;;;;;;;27.33;18.17;;;;;;;6.32;83.58;102089.19;5063688;28;20511;-60
2021/11/24 00:20:43;;;;;;;28.98;18.77;;;;;;;6.32;84.34;102083.72;5059322;28;20044;-61
2021/11/24 00:23:10;;;;;;;30.85;16.95;;;;;;;6.46;83.72;102081.44;5072448;28;20056;-62
2021/11/24 00:25:37;;;;;;;30.33;18.38;;;;;;;6.30;83.58;102083.13;5062046;28;20112;-62
2021/11/24 00:28:05;;;;;;;29.63;18.15;;;;;;;6.30;84.26;102083.13;5065376;28;20071;-61
2021/11/24 00:30:32;;;;;;;29.42;18.20;;;;;;;6.35;83.58;102091.41;5054215;28;20435;-63
2021/11/24 00:33:00;;;;;;;27.80;17.35;;;;;;;6.23;84.18;102087.97;5054755;28;20045;-63
2021/11/24 00:35:27;;;;;;;29.85;18.15;;;;;;;6.37;83.59;102092.00;5055523;28;20059;-62
2021/11/24 00:37:54;;;;;;;28.75;17.58;;;;;;;6.46;83.75;102086.91;5061005;28;20048;-60
2021/11/24 00:40:25;;;;;;;27.88;18.40;;;;;;;6.27;83.85;102082.81;5079177;28;20063;-61
2021/11/24 00:42:52;;;;;;;31.92;18.17;;;;;;;6.29;83.74;102084.22;5054877;28;20060;-61
2021/11/24 00:45:20;;;;;;;33.35;18.75;;;;;;;5.99;85.16;102089.22;5059640;28;20048;-62
2021/11/24 00:47:48;;;;;;;33.05;18.60;;;;;;;6.12;85.35;102077.94;5089972;28;20055;-62
2021/11/24 00:50:15;;;;;;;28.50;18.45;;;;;;;6.12;85.34;102077.13;5092937;28;20063;-62
2021/11/24 00:52:43;;;;;;;30.80;19.27;;;;;;;5.81;86.18;102085.88;5074178;28;20056;-62
2021/11/24 00:55:10;;;;;;;31.55;18.58;;;;;;;5.79;86.80;102088.06;5076391;28;20048;-62
2021/11/24 00:57:38;;;;;;;32.05;19.20;;;;;;;5.67;87.06;102079.91;5077631;28;20056;-61
2021/11/24 01:00:06;;;;;;;36.22;19.98;;;;;;;5.93;87.07;102068.34;5076695;28;20044;-60
2021/11/24 01:02:33;;;;;;;31.38;19.77;;;;;;;5.88;86.59;102062.78;5077603;28;20393;-63
2021/11/24 01:05:01;;;;;;;27.98;18.67;;;;;;;5.87;87.22;102074.00;5078032;28;20424;-61
2021/11/24 01:07:28;;;;;;;33.42;19.80;;;;;;;5.83;87.24;102065.44;5059238;28;20055;-62
2021/11/24 01:09:55;;;;;;;30.88;19.23;;;;;;;5.70;87.74;102063.84;5045086;28;20053;-60
2021/11/24 01:12:23;;;;;;;30.15;19.13;;;;;;;5.85;87.24;102055.09;5077561;28;20053;-60
2021/11/24 01:14:50;;;;;;;27.50;17.77;;;;;;;5.87;86.73;102063.88;5077533;28;20056;-61
2021/11/24 01:17:18;;;;;;;30.70;19.90;;;;;;;5.96;86.93;102050.63;5077284;28;20055;-60
2021/11/24 01:19:45;;;;;;;27.33;18.65;;;;;;;6.00;85.98;102046.31;5077256;28;20048;-61
2021/11/24 01:22:12;;;;;;;30.13;18.73;;;;;;;6.07;85.76;102055.13;5076198;28;20045;-61
2021/11/24 01:24:40;;;;;;;31.40;19.25;;;;;;;6.00;85.64;102057.25;5075879;28;20075;-61
2021/11/24 01:27:08;;;;;;;30.98;19.88;;;;;;;6.02;85.47;102055.91;5074670;28;20055;-60
2021/11/24 01:29:35;;;;;;;29.23;18.60;;;;;;;6.00;85.91;102043.56;5057182;28;20060;-61
2021/11/24 01:32:03;;;;;;;28.58;18.38;;;;;;;6.06;85.85;102050.75;5069635;28;20047;-62
2021/11/24 01:34:30;;;;;;;27.50;17.45;;;;;;;5.82;86.21;102041.91;5075714;28;20051;-60
2021/11/24 01:36:58;;;;;;;29.20;18.35;;;;;;;5.91;86.32;102043.16;5076644;28;20067;-60
2021/11/24 01:39:25;;;;;;;29.13;17.98;;;;;;;6.04;85.43;102034.59;5084836;28;20372;-60
2021/11/24 01:41:52;;;;;;;28.73;18.88;;;;;;;5.96;85.89;102035.03;5095606;28;20056;-58
2021/11/24 01:44:27;;;;;;;29.33;18.05;;;;;;;5.78;86.55;102029.81;5096969;28;20044;-61
2021/11/24 01:46:57;;;;;;;28.13;18.50;;;;;;;5.78;86.47;102032.53;5097119;28;20067;-60
2021/11/24 01:49:26;;;;;;;29.80;19.35;;;;;;;5.76;86.55;102023.75;5095698;28;20067;-62
2021/11/24 01:51:53;;;;;;;29.63;18.83;;;;;;;5.61;87.35;102031.72;5095403;28;20055;-60
2021/11/24 01:54:20;;;;;;;32.10;19.48;;;;;;;5.66;87.81;102035.38;5085443;28;20461;-60
2021/11/24 01:56:48;;;;;;;31.52;19.20;;;;;;;5.71;87.70;102027.25;5075778;28;20055;-60
2021/11/24 01:59:15;;;;;;;30.00;18.65;;;;;;;5.68;87.36;102018.72;5075022;28;20515;-61
2021/11/24 02:01:44;;;;;;;31.20;18.98;;;;;;;5.78;86.83;102023.50;5076037;28;20044;-60
2021/11/24 02:04:13;;;;;;;30.48;18.00;;;;;;;5.71;87.48;102012.75;5074828;28;20075;-60
2021/11/24 02:06:42;;;;;;;30.50;19.60;;;;;;;5.78;87.23;102013.41;5076053;28;20484;-61
2021/11/24 02:09:09;;;;;;;30.60;18.70;;;;;;;5.80;86.61;102013.16;5074262;28;20075;-60
2021/11/24 02:11:39;;;;;;;30.00;18.33;;;;;;;5.80;86.59;102010.41;5074513;28;20049;-61
2021/11/24 02:14:08;;;;;;;30.08;18.85;;;;;;;5.78;86.52;102015.28;5076113;28;20044;-58
2021/11/24 02:17:05;;;;;;;31.25;18.40;;;;;;;5.61;87.25;102012.59;5074283;28;20068;-61
2021/11/24 02:19:34;;;;;;;32.80;19.98;;;;;;;5.72;86.96;102007.03;5059464;28;20469;-61
2021/11/24 02:22:02;;;;;;;29.70;18.70;;;;;;;5.75;86.70;102022.09;5058700;28;20037;-59
2021/11/24 02:24:32;;;;;;;32.75;19.83;;;;;;;5.56;87.18;102001.59;5054363;28;20416;-61
2021/11/24 02:27:01;;;;;;;31.25;19.95;;;;;;;5.66;87.22;102001.72;5055977;28;20060;-59
2021/11/24 02:29:28;;;;;;;33.95;20.23;;;;;;;5.52;87.32;102003.16;5054306;28;20063;-61
2021/11/24 02:31:58;;;;;;;33.40;20.20;;;;;;;5.47;87.99;101994.88;5067387;28;20480;-62
2021/11/24 02:34:26;;;;;;;36.95;20.20;;;;;;;5.53;87.85;101991.97;5074666;28;20059;-61
2021/11/24 02:36:55;;;;;;;29.00;19.15;;;;;;;5.78;87.56;101993.44;5075635;28;20048;-59
2021/11/24 02:39:22;;;;;;;30.92;20.05;;;;;;;5.69;87.02;101985.66;5083316;28;20044;-60
2021/11/24 02:41:49;;;;;;;32.22;19.58;;;;;;;5.65;87.22;101987.22;5095621;28;20040;-61
2021/11/24 02:44:29;;;;;;;34.78;20.60;;;;;;;5.69;87.02;101979.34;5095734;28;20056;-60
2021/11/24 02:47:07;;;;;;;33.25;20.55;;;;;;;5.44;87.23;101987.19;5095626;28;20071;-61
2021/11/24 02:49:36;;;;;;;33.83;20.48;;;;;;;5.56;87.38;101986.00;5095396;28;20605;-60
2021/11/24 02:52:04;;;;;;;35.88;20.23;;;;;;;5.60;87.26;101972.66;5095697;28;20059;-60
2021/11/24 02:54:32;;;;;;;33.95;20.80;;;;;;;5.54;87.46;101984.59;5094992;28;20639;-60
2021/11/24 02:57:01;;;;;;;35.78;19.95;;;;;;;5.50;87.57;101969.78;5095414;28;20059;-60
2021/11/24 02:59:29;;;;;;;38.33;22.03;;;;;;;5.42;87.70;101968.28;5095331;28;20154;-61
2021/11/24 03:01:56;;;;;;;37.83;21.10;;;;;;;5.44;88.01;101962.59;5094756;28;20050;-60
2021/11/24 03:04:28;;;;;;;33.15;21.05;;;;;;;5.46;87.55;101958.50;5095658;28;20062;-60
2021/11/24 03:06:57;;;;;;;33.38;20.52;;;;;;;5.50;87.56;101962.41;5095357;28;20059;-63
2021/11/24 03:09:25;;;;;;;39.83;21.27;;;;;;;5.50;87.41;101959.69;5075982;28;20408;-63
2021/11/24 03:11:53;;;;;;;34.05;20.83;;;;;;;5.49;87.27;101952.53;5074786;28;20048;-63
2021/11/24 03:14:21;;;;;;;34.85;21.33;;;;;;;5.52;86.98;101946.59;5075112;28;20056;-64
2021/11/24 03:16:55;;;;;;;32.88;20.48;;;;;;;5.51;87.17;101941.34;5073552;28;20056;-64
2021/11/24 03:19:23;;;;;;;32.72;20.40;;;;;;;5.14;88.68;101940.22;5054783;28;20057;-64
2021/11/24 03:21:51;;;;;;;38.13;22.05;;;;;;;4.88;90.59;101938.94;5055256;28;20045;-64
2021/11/24 03:24:18;;;;;;;36.83;21.92;;;;;;;5.19;89.68;101935.69;5053514;28;20045;-64
2021/11/24 03:26:45;;;;;;;40.30;22.65;;;;;;;4.97;90.57;101937.47;5054875;28;20067;-64
2021/11/24 03:29:13;;;;;;;37.10;21.15;;;;;;;5.04;89.85;101929.94;5053295;28;20057;-63
2021/11/24 03:31:40;;;;;;;37.92;22.23;;;;;;;5.02;89.60;101923.91;5063218;28;20052;-66
2021/11/24 03:34:09;;;;;;;38.25;21.70;;;;;;;5.14;89.28;101926.56;5073653;28;20056;-64
2021/11/24 03:36:38;;;;;;;35.55;21.92;;;;;;;5.21;89.09;101927.25;5057302;28;20143;-64
2021/11/24 03:39:06;;;;;;;34.13;21.17;;;;;;;5.49;88.22;101929.88;5078473;28;20052;-64
2021/11/24 03:41:34;;;;;;;37.22;21.35;;;;;;;5.16;88.40;101922.50;5093146;28;20044;-64
2021/11/24 03:44:01;;;;;;;38.65;21.55;;;;;;;5.25;88.52;101922.91;5093485;28;20125;-64
2021/11/24 03:46:28;;;;;;;37.40;21.20;;;;;;;5.35;88.00;101915.72;5076772;28;20055;-60
2021/11/24 03:48:55;;;;;;;40.10;20.52;;;;;;;5.25;88.44;101912.81;5076333;28;20078;-60
2021/11/24 03:51:23;;;;;;;39.45;22.00;;;;;;;5.20;88.56;101915.47;5081376;28;20528;-62
2021/11/24 03:53:51;;;;;;;41.53;22.48;;;;;;;5.41;87.92;101920.19;5074334;28;20149;-59
2021/11/24 03:56:18;;;;;;;38.83;22.17;;;;;;;5.39;87.91;101908.69;5074364;28;20084;-60
2021/11/24 03:58:45;;;;;;;36.05;20.60;;;;;;;5.15;88.40;101909.09;5053417;28;20056;-62
2021/11/24 04:01:13;;;;;;;37.42;22.00;;;;;;;5.35;88.07;101907.50;5052842;28;20053;-61
2021/11/24 04:03:41;;;;;;;38.70;21.88;;;;;;;5.10;88.61;101906.28;5054179;28;20072;-62
2021/11/24 04:06:08;;;;;;;38.70;22.83;;;;;;;5.02;89.17;101893.06;5054367;28;20385;-60
2021/11/24 04:08:36;;;;;;;38.05;22.67;;;;;;;5.17;88.21;101902.31;5051997;28;20045;-65
2021/11/24 04:11:03;;;;;;;39.03;22.98;;;;;;;5.26;88.69;101891.81;5053696;28;20072;-61
2021/11/24 04:13:30;;;;;;;35.50;22.23;;;;;;;5.15;88.56;101900.91;5054302;28;20052;-60
2021/11/24 04:15:57;;;;;;;38.03;22.38;;;;;;;5.27;87.65;101902.47;5052805;28;20045;-60
2021/11/24 04:18:25;;;;;;;37.95;22.58;;;;;;;4.86;89.89;101891.16;5054052;28;20052;-61
2021/11/24 04:20:55;;;;;;;40.17;22.15;;;;;;;4.85;90.15;101897.66;5055421;28;20465;-59
2021/11/24 04:23:23;;;;;;;41.30;23.23;;;;;;;5.08;89.75;101889.31;5057800;28;20056;-60
2021/11/24 04:25:50;;;;;;;35.35;21.75;;;;;;;5.10;88.66;101887.19;5057914;28;20056;-61
2021/11/24 04:28:18;;;;;;;39.78;21.92;;;;;;;4.99;89.16;101883.44;5056611;28;20056;-61
2021/11/24 04:30:45;;;;;;;43.83;23.17;;;;;;;5.07;88.83;101884.94;5057310;28;20057;-62
2021/11/24 04:33:13;;;;;;;39.97;22.23;;;;;;;5.16;88.49;101881.53;5058073;28;20144;-60
2021/11/24 04:35:40;;;;;;;39.72;22.38;;;;;;;5.21;88.35;101878.88;5057909;28;20507;-61
2021/11/24 04:38:08;;;;;;;38.53;21.60;;;;;;;5.00;88.60;101876.09;5056382;28;20060;-62
2021/11/24 04:40:35;;;;;;;41.45;23.42;;;;;;;5.01;88.42;101872.28;5093403;28;20056;-60
2021/11/24 04:43:05;;;;;;;38.58;22.25;;;;;;;5.03;88.68;101872.88;5097790;28;20044;-59
2021/11/24 04:45:32;;;;;;;36.08;21.13;;;;;;;4.94;88.97;101860.69;5096458;28;20059;-60
2021/11/24 04:48:00;;;;;;;37.22;22.02;;;;;;;5.16;88.03;101861.63;5097985;28;20158;-61
2021/11/24 04:50:27;;;;;;;36.38;21.83;;;;;;;5.04;88.41;101866.34;5097648;28;20044;-60
2021/11/24 04:52:54;;;;;;;38.67;22.15;;;;;;;4.76;89.60;101874.59;5097825;28;20051;-61
2021/11/24 04:55:22;;;;;;;39.75;22.98;;;;;;;5.08;88.68;101860.13;5097704;28;20051;-60
2021/11/24 04:57:49;;;;;;;39.10;22.02;;;;;;;4.88;88.55;101867.16;5092026;28;20051;-60
2021/11/24 05:00:20;;;;;;;38.53;21.52;;;;;;;5.15;88.16;101873.59;5075764;28;20059;-62
2021/11/24 05:02:50;;;;;;;38.03;22.05;;;;;;;4.95;88.57;101865.91;5076721;28;20056;-61
2021/11/24 05:05:24;;;;;;;42.95;23.48;;;;;;;5.05;87.86;101859.78;5077401;28;20075;-60
2021/11/24 05:07:51;;;;;;;41.92;24.23;;;;;;;4.99;87.67;101866.22;5074004;28;20056;-60
2021/11/24 05:10:18;;;;;;;44.47;24.10;;;;;;;5.11;88.04;101865.06;5056752;28;20057;-62
2021/11/24 05:12:46;;;;;;;39.40;23.60;;;;;;;5.30;86.85;101865.66;5057734;28;20053;-60
2021/11/24 05:15:19;;;;;;;40.45;23.08;;;;;;;5.28;86.79;101865.88;5057259;28;20053;-60
2021/11/24 05:17:50;;;;;;;41.92;23.23;;;;;;;5.27;86.57;101864.25;5057020;28;20055;-61
2021/11/24 05:20:21;;;;;;;40.70;23.00;;;;;;;5.03;87.72;101865.50;5056795;28;20052;-60
2021/11/24 05:22:49;;;;;;;40.80;23.92;;;;;;;5.17;87.36;101861.38;5054445;28;20614;-60
2021/11/24 05:25:16;;;;;;;40.03;22.92;;;;;;;5.02;86.95;101863.84;5056789;28;20060;-61
2021/11/24 05:27:44;;;;;;;42.97;22.98;;;;;;;5.12;87.41;101858.56;5057189;28;20044;-61
2021/11/24 05:30:12;;;;;;;39.55;22.52;;;;;;;5.01;87.42;101864.94;5056716;28;20505;-61
2021/11/24 05:32:39;;;;;;;41.92;23.65;;;;;;;4.91;87.29;101862.03;5055626;28;20049;-61
2021/11/24 05:35:07;;;;;;;37.78;22.23;;;;;;;4.75;88.19;101859.28;5056887;28;20063;-60
2021/11/24 05:37:34;;;;;;;40.33;22.13;;;;;;;4.62;89.27;101865.88;5055751;28;20052;-61
2021/11/24 05:40:01;;;;;;;39.90;22.23;;;;;;;4.60;89.93;101859.88;5082008;28;20356;-61
2021/11/24 05:42:29;;;;;;;40.58;22.30;;;;;;;4.66;89.94;101856.13;5096274;28;20066;-60
2021/11/24 05:45:12;;;;;;;42.35;22.58;;;;;;;4.98;89.03;101845.47;5095563;28;20492;-65
2021/11/24 05:50:40;;;;;;;37.67;21.30;;;;;;;4.83;88.62;101842.53;5096535;28;20048;-66
2021/11/24 05:53:11;;;;;;;38.35;21.15;;;;;;;4.85;88.16;101835.72;5094959;28;20411;-60
2021/11/24 05:55:39;;;;;;;43.35;20.40;;;;;;;4.81;88.59;101831.03;5076588;28;20059;-61
2021/11/24 05:58:06;;;;;;;39.55;22.05;;;;;;;4.80;88.61;101834.81;5073932;28;20045;-60
2021/11/24 06:00:34;;;;;;;35.60;20.30;;;;;;;5.01;87.82;101831.31;5056405;28;20412;-60
2021/11/24 06:03:02;;;;;;;36.83;21.23;;;;;;;5.33;86.88;101827.75;5055564;28;20053;-60
2021/11/24 06:05:29;;;;;;;37.35;21.00;;;;;;;5.40;84.91;101831.13;5056414;28;20057;-62
2021/11/24 06:07:56;;;;;;;35.85;21.08;;;;;;;5.32;84.41;101831.53;5042454;28;20403;-59
2021/11/24 06:10:24;;;;;;;33.15;19.75;;;;;;;5.20;85.67;101827.25;5075947;28;20060;-61
2021/11/24 06:12:51;;;;;;;34.20;20.13;;;;;;;5.39;84.91;101826.72;5075527;28;20049;-61
2021/11/24 06:15:19;;;;;;;35.58;20.70;;;;;;;5.36;84.77;101824.50;5075786;28;20048;-62
2021/11/24 06:17:47;;;;;;;34.25;19.38;;;;;;;5.36;84.94;101819.03;5076161;28;20063;-60
2021/11/24 06:20:16;;;;;;;32.20;19.10;;;;;;;5.58;83.99;101816.31;5075887;28;20067;-61
2021/11/24 06:22:44;;;;;;;34.28;19.50;;;;;;;5.52;83.69;101806.41;5075601;28;20049;-62
2021/11/24 06:25:12;;;;;;;33.10;19.08;;;;;;;5.35;83.71;101813.81;5074622;28;20059;-61
2021/11/24 06:27:41;;;;;;;33.70;18.85;;;;;;;5.44;83.55;101807.66;5071959;28;20051;-60
2021/11/24 06:30:13;;;;;;;34.10;19.25;;;;;;;5.31;84.27;101809.94;5067025;28;20041;-60
2021/11/24 06:32:40;;;;;;;33.13;18.92;;;;;;;5.11;84.85;101809.66;5072776;28;20045;-61
2021/11/24 06:35:08;;;;;;;31.88;18.55;;;;;;;5.22;85.08;101811.44;5059001;28;20060;-60
2021/11/24 06:37:39;;;;;;;33.35;19.83;;;;;;;5.23;84.37;101810.38;5055666;28;20067;-61
2021/11/24 06:40:08;;;;;;;31.30;18.55;;;;;;;5.24;83.76;101814.75;5082595;28;20052;-58
2021/11/24 06:42:36;;;;;;;37.30;19.10;;;;;;;5.07;84.57;101806.59;5079493;28;20067;-61
2021/11/24 06:45:04;;;;;;;32.47;18.80;;;;;;;4.76;85.49;101820.81;5074148;28;20049;-61
2021/11/24 06:47:32;;;;;;;32.95;18.38;;;;;;;4.93;85.71;101820.84;5066155;28;20060;-61
2021/11/24 06:49:59;;;;;;;35.83;18.48;;;;;;;5.03;84.88;101799.16;5055664;28;20048;-65
2021/11/24 06:52:27;;;;;;;33.95;18.33;;;;;;;4.89;84.96;101800.56;5053630;28;20099;-64
2021/11/24 06:54:54;;;;;;;35.53;19.35;;;;;;;4.88;85.50;101796.19;5055588;28;20045;-66
2021/11/24 06:57:21;;;;;;;32.83;18.02;;;;;;;4.78;85.63;101790.59;5073677;28;20044;-62
2021/11/24 06:59:48;;;;;;;30.55;17.75;;;;;;;4.89;85.94;101787.75;5058769;28;20052;-61
2021/11/24 07:02:16;;;;;;;36.22;18.75;;;;;;;4.77;86.03;101797.09;5053661;28;20056;-60
2021/11/24 07:04:45;;;;;;;33.00;18.38;;;;;;;4.99;84.87;101804.28;5063189;28;20045;-62
2021/11/24 07:07:12;;;;;;;30.55;17.75;;;;;;;4.96;84.50;101788.41;5057039;28;20057;-61
2021/11/24 07:09:45;;;;;;;33.08;17.77;;;;;;;4.88;85.94;101801.66;5062475;28;20057;-62
2021/11/24 07:12:13;;;;;;;;;;;;;;;4.92;85.39;101794.59;5070884;28;20060;-61
2021/11/24 07:14:40;;;;;;;39.65;18.75;;;;;;;4.95;85.98;101785.94;5054517;28;19928;-62
2021/11/24 07:17:09;;;;;;;33.15;18.48;;;;;;;4.70;85.59;101808.19;5056646;28;20526;-56
2021/11/24 07:19:38;;;;;;;33.70;19.45;;;;;;;4.92;84.88;101792.69;5071568;28;20052;-63
2021/11/24 07:22:06;;;;;;;32.97;18.13;;;;;;;5.43;85.40;101794.25;5054614;28;20498;-65
2021/11/24 07:24:34;;;;;;;31.80;17.95;;;;;;;5.59;84.00;101788.75;5060646;28;20041;-61
2021/11/24 07:27:01;;;;;;;31.10;18.58;;;;;;;5.48;82.61;101795.16;5060433;28;20059;-61
2021/11/24 07:29:28;;;;;;;32.70;18.85;;;;;;;5.03;83.81;101790.94;5063407;28;20049;-63
2021/11/24 07:31:55;;;;;;;30.67;18.75;;;;;;;4.50;85.56;101797.75;5062591;28;20054;-63
2021/11/24 07:34:23;;;;;;;31.10;18.25;;;;;;;5.35;87.83;101781.03;5057972;28;20033;-62
2021/11/24 07:36:50;;;;;;;29.08;17.10;;;;;;;5.46;85.02;101778.19;5075169;28;20048;-65
2021/11/24 07:39:18;;;;;;;31.05;17.67;;;;;;;5.83;83.32;101780.28;5081912;28;20051;-65
2021/11/24 07:41:45;;;;;;;28.83;17.40;;;;;;;5.44;81.59;101779.53;5068592;28;20079;-66
2021/11/24 07:44:14;;;;;;;31.63;18.30;;;;;;;5.75;82.65;101776.09;5055156;28;20044;-64
2021/11/24 07:46:42;;;;;;;32.25;17.55;;;;;;;5.67;82.66;101776.53;5058533;28;20048;-63
2021/11/24 07:49:09;;;;;;;35.75;17.08;;;;;;;5.84;82.68;101773.75;5057150;28;20061;-66
2021/11/24 07:51:36;;;;;;;29.98;17.02;;;;;;;5.54;81.64;101774.19;5061601;28;20049;-63
2021/11/24 07:54:04;;;;;;;31.02;18.10;;;;;;;5.72;81.44;101771.09;5053237;28;20048;-64
2021/11/24 07:56:31;;;;;;;30.83;18.02;;;;;;;5.20;81.08;101776.19;5056971;28;20057;-63
2021/11/24 07:58:59;;;;;;;34.22;17.52;;;;;;;5.43;82.17;101780.59;5056352;28;20056;-63
2021/11/24 08:01:26;;;;;;;36.38;17.80;;;;;;;5.31;80.70;101777.16;5057926;28;20063;-64
2021/11/24 08:03:53;;;;;;;33.00;18.42;;;;;;;5.08;82.62;101785.56;5057208;28;20049;-64
2021/11/24 08:06:21;;;;;;;32.88;17.73;;;;;;;5.07;81.89;101779.28;5056263;28;20362;-64
2021/11/24 08:08:48;;;;;;;30.73;18.15;;;;;;;4.90;83.97;101780.41;5075738;28;20122;-64
2021/11/24 08:11:15;;;;;;;28.52;16.98;;;;;;;5.48;82.39;101783.38;5097173;28;20439;-63
2021/11/24 08:13:42;;;;;;;36.58;17.73;;;;;;;5.35;80.70;101781.84;5069944;28;20036;-64
2021/11/24 08:16:10;;;;;;;30.17;17.08;;;;;;;5.46;81.41;101780.06;5058313;28;20057;-63
2021/11/24 08:18:37;;;;;;;40.10;17.02;;;;;;;5.61;80.83;101775.63;5067452;28;20052;-64
2021/11/24 08:21:05;;;;;;;36.50;19.05;;;;;;;5.81;79.52;101771.47;5064438;28;20218;-63
2021/11/24 08:23:32;;;;;;;31.83;17.73;;;;;;;5.50;79.71;101773.88;5077431;28;20044;-64
2021/11/24 08:26:00;;;;;;;33.92;18.25;;;;;;;5.07;80.45;101778.47;5078046;28;20048;-64
2021/11/24 08:28:27;;;;;;;31.55;18.30;;;;;;;5.11;82.07;101776.88;5075883;28;20055;-64
2021/11/24 08:30:54;;;;;;;30.38;17.42;;;;;;;5.39;81.53;101776.69;5061348;28;20508;-65
2021/11/24 08:33:22;;;;;;;29.75;18.05;;;;;;;4.84;82.83;101775.91;5056109;28;20053;-64
2021/11/24 08:35:49;;;;;;;35.53;19.65;;;;;;;5.11;82.95;101777.69;5057819;28;20076;-64
2021/11/24 08:38:17;;;;;;;41.17;18.42;;;;;;;5.11;81.52;101768.69;5057099;28;20057;-64
2021/11/24 08:40:44;;;;;;;33.53;18.83;;;;;;;5.43;80.67;101767.75;5071488;28;20056;-64
2021/11/24 08:43:12;;;;;;;29.00;17.73;;;;;;;5.36;80.43;101772.59;5058105;28;20045;-64
2021/11/24 08:45:39;;;;;;;35.72;17.75;;;;;;;5.86;80.00;101771.59;5058220;28;20493;-65
2021/11/24 08:48:07;;;;;;;28.88;17.42;;;;;;;5.77;78.16;101762.16;5070344;28;20045;-63
2021/11/24 08:50:34;;;;;;;30.85;17.33;;;;;;;6.00;78.40;101756.44;5064298;28;20044;-65
2021/11/24 08:53:02;;;;;;;28.75;16.88;;;;;;;6.03;77.89;101758.66;5060567;28;20044;-65
2021/11/24 08:55:29;;;;;;;30.50;17.15;;;;;;;6.20;77.07;101754.72;5059696;28;20056;-64
2021/11/24 08:57:57;;;;;;;34.55;18.50;;;;;;;5.08;79.69;101753.63;5067911;28;20041;-64
2021/11/24 09:00:24;;;;;;;33.42;18.63;;;;;;;4.85;83.06;101750.28;5064911;28;20053;-65
2021/11/24 09:02:58;;;;;;;35.15;18.52;;;;;;;5.45;81.59;101746.50;5060950;28;20056;-64
2021/11/24 09:05:25;;;;;;;34.58;16.98;;;;;;;5.78;80.32;101744.66;5065828;28;20400;-64
2021/11/24 09:07:53;;;;;;;34.58;16.05;;;;;;;6.03;77.98;101734.03;5064359;28;20057;-64
2021/11/24 09:10:21;;;;;;;34.80;17.35;;;;;;;5.86;78.05;101733.31;5070245;28;20056;-63
2021/11/24 09:12:48;;;;;;;29.45;16.70;;;;;;;5.66;78.04;101729.25;5069496;28;20049;-64
2021/11/24 09:15:15;;;;;;;30.00;17.98;;;;;;;5.11;80.07;101723.09;5075168;28;20060;-63
2021/11/24 09:18:03;;;;;;;29.05;17.05;;;;;;;5.43;79.65;101723.22;5051007;28;20064;-62
2021/11/24 09:20:33;;;;;;;30.08;17.80;;;;;;;5.43;80.15;101720.47;5057081;28;20079;-62
2021/11/24 09:23:04;;;;;;;34.17;18.40;;;;;;;4.98;81.18;101728.09;5070676;28;20052;-63
2021/11/24 09:25:49;;;;;;;38.17;19.17;;;;;;;4.62;83.42;101728.66;5064500;28;20056;-62
2021/11/24 09:28:19;;;;;;;36.20;20.33;;;;;;;4.98;82.98;101730.81;5067729;28;20052;-62
2021/11/24 09:30:49;;;;;;;33.33;18.88;;;;;;;4.96;82.33;101730.25;5063588;28;20051;-62
2021/11/24 09:33:16;;;;;;;33.20;20.88;;;;;;;4.96;82.80;101728.34;5059263;28;20057;-63
2021/11/24 09:35:44;;;;;;;32.80;18.67;;;;;;;5.31;81.30;101728.81;5064287;28;20059;-63
2021/11/24 09:38:12;;;;;;;32.83;19.77;;;;;;;5.33;81.11;101728.56;5067895;28;20056;-62
2021/11/24 09:40:40;;;;;;;31.98;18.83;;;;;;;5.28;80.20;101718.38;5061906;28;20052;-64
2021/11/24 09:43:10;;;;;;;33.40;19.35;;;;;;;5.44;80.03;101714.75;5066473;28;20052;-63
2021/11/24 09:45:40;;;;;;;31.63;18.65;;;;;;;5.49;79.72;101716.75;5057826;28;20051;-62
2021/11/24 09:48:07;;;;;;;29.20;17.57;;;;;;;5.34;79.98;101714.66;5064990;28;20056;-63
2021/11/24 09:50:37;;;;;;;30.50;17.92;;;;;;;5.31;79.78;101712.44;5064182;28;20060;-63
2021/11/24 09:53:04;;;;;;;30.33;17.65;;;;;;;5.27;79.67;101707.72;5056731;28;20120;-63
2021/11/24 09:55:38;;;;;;;27.65;17.05;;;;;;;5.15;79.93;101717.94;5058827;28;20040;-63
2021/11/24 09:58:07;;;;;;;36.33;18.75;;;;;;;5.34;79.73;101719.28;5056524;28;20542;-62
2021/11/24 10:00:36;;;;;;;32.13;17.77;;;;;;;5.33;79.60;101717.63;5067779;28;20061;-62
2021/11/24 10:03:04;;;;;;;39.28;19.65;;;;;;;5.43;79.08;101717.75;5064588;28;20060;-62
2021/11/24 10:05:32;;;;;;;34.10;17.67;;;;;;;5.65;78.84;101718.53;5066251;28;20044;-62
2021/11/24 10:07:59;;;;;;;34.70;18.30;;;;;;;5.56;78.12;101711.91;5061593;28;20115;-63
2021/11/24 10:10:27;;;;;;;31.10;18.73;;;;;;;5.50;79.53;101716.50;5061992;28;20041;-62
2021/11/24 10:12:55;;;;;;;30.10;18.00;;;;;;;5.37;78.72;101705.94;5069859;28;20369;-62
2021/11/24 10:15:40;;;;;;;32.83;18.80;;;;;;;5.18;79.90;101709.22;5059630;28;20505;-64
2021/11/24 10:18:19;;;;;;;34.22;18.67;;;;;;;5.62;79.10;101708.97;5067879;28;20079;-62
2021/11/24 10:20:50;;;;;;;32.50;17.98;;;;;;;5.66;78.00;101709.28;5055886;28;20048;-61
2021/11/24 10:23:30;;;;;;;34.88;19.65;;;;;;;5.39;79.49;101706.50;5060240;28;20056;-63
2021/11/24 10:26:32;;;;;;;26.88;18.20;;;;;;;5.54;78.25;101694.94;5055416;28;20068;-63
2021/11/24 10:29:19;;;;;;;33.53;18.33;;;;;;;5.38;78.68;101690.38;5064926;28;20052;-62
2021/11/24 10:32:07;;;;;;;33.13;19.17;;;;;;;5.03;80.90;101684.47;5065474;28;20495;-64
2021/11/24 10:34:40;;;;;;;34.95;19.13;;;;;;;5.08;80.61;101677.19;5062031;28;20064;-62
2021/11/24 10:37:08;;;;;;;28.70;18.48;;;;;;;5.39;79.77;101683.81;5056370;28;20404;-62
2021/11/24 10:39:55;;;;;;;30.87;18.33;;;;;;;5.15;79.36;101672.34;5064224;28;20044;-62
2021/11/24 10:42:38;;;;;;;31.85;18.70;;;;;;;5.02;80.61;101669.19;5058214;28;20059;-63
2021/11/24 10:45:15;;;;;;;31.98;17.65;;;;;;;5.21;80.24;101665.84;5072894;28;20044;-63
2021/11/24 10:47:54;;;;;;;36.38;20.40;;;;;;;5.57;78.59;101659.72;5056510;28;20060;-62
2021/11/24 10:50:26;;;;;;;29.70;18.35;;;;;;;5.72;78.47;101648.94;5053919;28;20057;-64
2021/11/24 10:53:19;;;;;;;27.52;17.55;;;;;;;5.58;78.58;101649.59;5046200;28;20834;-63
2021/11/24 10:55:47;;;;;;;25.90;16.52;;;;;;;5.17;79.25;101653.81;5057320;28;20044;-63
2021/11/24 10:58:19;;;;;;;28.98;17.40;;;;;;;5.28;80.23;101643.84;5054198;28;20048;-62
2021/11/24 11:00:52;;;;;;;30.45;18.13;;;;;;;5.29;79.66;101640.84;5055050;28;20049;-63
2021/11/24 11:03:40;;;;;;;32.70;17.48;;;;;;;5.12;79.61;101631.91;5061561;28;20044;-62
2021/11/24 11:06:07;;;;;;;27.65;18.00;;;;;;;5.48;79.01;101625.75;5060010;28;20048;-63
2021/11/24 11:08:34;;;;;;;26.77;16.70;;;;;;;5.65;77.32;101621.00;5060359;28;20056;-63
2021/11/24 11:11:27;;;;;;;28.33;17.48;;;;;;;5.65;77.84;101614.69;5054637;28;20049;-62
2021/11/24 11:14:19;;;;;;;28.15;16.73;;;;;;;6.07;76.02;101606.59;5059092;28;20055;-62
2021/11/24 11:16:52;;;;;;;24.85;15.85;;;;;;;6.24;74.99;101594.44;5058892;28;20051;-64
2021/11/24 11:19:44;;;;;;;26.50;16.20;;;;;;;6.19;74.24;101596.34;5066996;28;20052;-64
2021/11/24 11:22:19;;;;;;;27.60;16.98;;;;;;;6.21;74.02;101594.13;5063433;28;20069;-63
2021/11/24 11:24:46;;;;;;;23.88;15.88;;;;;;;6.29;73.91;101580.81;5055477;28;20058;-62
2021/11/24 11:27:14;;;;;;;29.48;16.02;;;;;;;6.16;73.67;101578.53;5059009;28;20040;-62
2021/11/24 11:29:43;;;;;;;23.85;16.70;;;;;;;6.20;73.20;101568.72;5056272;28;20053;-64